HLN - Helena Rgnl

Pirep is a free, collaborative database of all public and private airports located within the United States. All pilots are welcome to contribute, edit, and improve any airport they have local knowledge about, no registration required.
Uploaded photos will be licensed under a CC BY-SA 4.0 license. Please only upload photos you have the rights to use.
Tags
Public
METAR / TAF
Flying Clubs
Car Rental
Webcam
Edit Tags
Food
Camping
Lodging
Bicycles
Swimming
Golfing
Fishing
Hot Springs
Museum
Airpark
Upcoming Events
No upcoming events. Is anything happening here soon?
*
*
*

Where exactly on/near the airport is this event taking place?

Is there a webpage with more information for this event?

Who should be contacted for more information?

What is this event all about?

Repeat every
Description
Transient Parking
Fuel Location
Landing & Tie-down Fees
Crew Car Availability
Flying Clubs
Last updated: 2024-02-14 23:42:34 MST
WiFi Access
Airport Statistics
Location: Helena, MT
Elevation: 3,877ft
Sectional: Great Falls
Activation date: Apr 1940
Fuel: 100, 100LL, A (prices)
Runway 09/27: 9,000ft
Runway 05/23: 4,644ft
Runway 17/35: 2,989ft
Runway 10/28: 1,584ft
Access: Open to the public
Current Weather — VFR
  • Weather data is strictly informational and not for flight planning purposes.
  • METAR
    2024-04-24 05:53:00 MDT
    Ceiling Wind Temperature Dewpoint Weather Visbility
    Sky clear 240° @ 3kt 37°F 19°F N/A 10SM
    Raw: KHLN 241153Z 24003KT 10SM CLR 03/M07 A2994 RMK AO2 SLP150 T00281067 10078 20022 53000
  • TAF
    2024-04-24 06:00:00 MDT – 2024-04-24 14:00:00 MDT
    Ceiling Wind Weather Visbility
    19,000ft Variable N/A 6SM
    Clouds: Broken @ 19,000ft
    Raw: KHLN 241120Z 2412/2512 VRB06KT P6SM BKN190 FM242000 28009KT P6SM FEW170 FM242200 18010KT P6SM SCT120 FM250000 29009KT P6SM BKN090 FM250500 VRB06KT P6SM BKN090
  • TAF
    2024-04-24 14:00:00 MDT – 2024-04-24 16:00:00 MDT
    Ceiling Wind Weather Visbility
    Sky clear 280° @ 9kt N/A 6SM
    Clouds: Few @ 17,000ft
    Raw: KHLN 241120Z 2412/2512 VRB06KT P6SM BKN190 FM242000 28009KT P6SM FEW170 FM242200 18010KT P6SM SCT120 FM250000 29009KT P6SM BKN090 FM250500 VRB06KT P6SM BKN090
  • TAF
    2024-04-24 16:00:00 MDT – 2024-04-24 18:00:00 MDT
    Ceiling Wind Weather Visbility
    Sky clear 180° @ 10kt N/A 6SM
    Clouds: Scattered @ 12,000ft
    Raw: KHLN 241120Z 2412/2512 VRB06KT P6SM BKN190 FM242000 28009KT P6SM FEW170 FM242200 18010KT P6SM SCT120 FM250000 29009KT P6SM BKN090 FM250500 VRB06KT P6SM BKN090
  • TAF
    2024-04-24 18:00:00 MDT – 2024-04-24 23:00:00 MDT
    Ceiling Wind Weather Visbility
    9,000ft 290° @ 9kt N/A 6SM
    Clouds: Broken @ 9,000ft
    Raw: KHLN 241120Z 2412/2512 VRB06KT P6SM BKN190 FM242000 28009KT P6SM FEW170 FM242200 18010KT P6SM SCT120 FM250000 29009KT P6SM BKN090 FM250500 VRB06KT P6SM BKN090
  • TAF
    2024-04-24 23:00:00 MDT – 2024-04-25 06:00:00 MDT
    Ceiling Wind Weather Visbility
    9,000ft Variable N/A 6SM
    Clouds: Broken @ 9,000ft
    Raw: KHLN 241120Z 2412/2512 VRB06KT P6SM BKN190 FM242000 28009KT P6SM FEW170 FM242200 18010KT P6SM SCT120 FM250000 29009KT P6SM BKN090 FM250500 VRB06KT P6SM BKN090
Click/tap to add an annotation marker to the map
Direct links to live image URLs will be displayed inline on this page. URLs to separate webpages will be linked to.
URL:
Direct links to live image URLs will be displayed inline on this page. URLs to separate webpages will be linked to.
URL:
Remarks
  • Arff coverage prvdd for sked part 121 acrs only excp with prior approval - call 406-442-2821.
  • Flight notification service (adcus) avbl.
  • Ry 17/35 & ry 05/23 (excp btn twy f & ry 09/27) not avbl for air carrier use by acft with gtr than 30 psgr seats.
  • Twys a, b, and c (btn twy a & ry 35) not avbl for air carrier use by acft with gtr than 30 psgr seats.
  • Arng - opr 1400-0030z++ mon-fri, exc hol. exercise caution while taxiing, aasf ramp not stressed for large acft. ctc flt ops for ramp advsy 126.2, dsn 406-324-5775, c406-324-5775. no trans svc sat, sun, hol or after 2300z++ mon-fri.
Comments
Leave a comment What was your experience like at this airport?